Time;durP1;ratioP1;P1;durP2;ratioP2;P2;SDS_P1;SDS_P2;PMS_P1;PMS_P2;Temp;Humidity;BMP_temperature;BMP_pressure;BME280_temperature;BME280_humidity;BME280_pressure;Samples;Min_cycle;Max_cycle;Signal;HPM_P1;HPM_P2
2021/09/01 00:00:59;;;;;;;9.15;5.70;;;10.90;99.90;;;;;;4994746;28;20038;-81
2021/09/01 00:03:25;;;;;;;6.07;4.57;;;10.90;99.90;;;;;;5005478;28;20463;-81
2021/09/01 00:05:51;;;;;;;9.02;5.40;;;10.90;99.90;;;;;;4982654;28;20057;-81
2021/09/01 00:08:17;;;;;;;6.43;4.47;;;10.90;99.90;;;;;;4998738;28;20399;-81
2021/09/01 00:10:43;;;;;;;8.65;5.20;;;10.90;99.90;;;;;;4982159;28;20049;-81
2021/09/01 00:13:09;;;;;;;11.55;5.40;;;10.80;99.90;;;;;;4991561;28;20027;-81
2021/09/01 00:15:35;;;;;;;6.32;4.57;;;10.80;99.90;;;;;;5007035;28;20038;-81
2021/09/01 00:18:01;;;;;;;6.90;5.28;;;10.80;99.90;;;;;;4982073;28;20381;-81
2021/09/01 00:20:27;;;;;;;6.38;5.30;;;10.70;99.90;;;;;;5001921;28;20061;-81
2021/09/01 00:22:53;;;;;;;7.30;5.30;;;10.70;99.90;;;;;;4997712;28;20065;-81
2021/09/01 00:25:20;;;;;;;8.90;5.90;;;10.70;99.90;;;;;;5000680;28;20756;-81
2021/09/01 00:27:45;;;;;;;7.55;5.30;;;10.80;99.90;;;;;;4998943;28;20038;-81
2021/09/01 00:30:11;;;;;;;7.18;5.28;;;10.80;99.90;;;;;;4969479;28;20516;-81
2021/09/01 00:32:37;;;;;;;8.77;5.50;;;10.80;99.90;;;;;;4976022;28;20042;-81
2021/09/01 00:35:03;;;;;;;6.90;5.28;;;10.80;99.90;;;;;;4980484;28;20038;-80
2021/09/01 00:37:29;;;;;;;8.43;5.20;;;10.80;99.90;;;;;;4993989;28;20035;-80
2021/09/01 00:39:55;;;;;;;8.40;5.55;;;10.70;99.90;;;;;;5001470;28;20030;-81
2021/09/01 00:42:20;;;;;;;9.88;5.30;;;10.80;99.90;;;;;;4984179;28;20033;-81
2021/09/01 00:44:46;;;;;;;7.95;5.40;;;10.70;99.90;;;;;;4985324;28;20042;-80
2021/09/01 00:47:20;;;;;;;9.45;5.43;;;10.70;99.90;;;;;;4999846;28;20037;-81
2021/09/01 00:49:46;;;;;;;9.43;6.10;;;10.70;99.90;;;;;;4980125;28;20050;-81
2021/09/01 00:52:13;;;;;;;6.72;5.45;;;10.70;99.90;;;;;;4989990;28;20487;-81
2021/09/01 00:54:40;;;;;;;6.90;5.20;;;10.70;99.90;;;;;;4996617;28;20476;-80
2021/09/01 00:57:07;;;;;;;6.82;5.78;;;10.60;99.90;;;;;;4975838;28;20034;-81
2021/09/01 00:59:39;;;;;;;8.90;6.10;;;10.60;99.90;;;;;;4991976;28;20511;-81
2021/09/01 01:02:05;;;;;;;7.57;5.35;;;10.50;99.90;;;;;;4988560;28;20062;-81
2021/09/01 01:04:32;;;;;;;9.70;5.50;;;10.50;99.90;;;;;;4998784;28;20441;-81
2021/09/01 01:07:08;;;;;;;5.78;4.55;;;10.50;99.90;;;;;;4995597;28;20048;-81
2021/09/01 01:09:36;;;;;;;7.05;4.40;;;10.50;99.90;;;;;;4985855;28;20034;-80
2021/09/01 01:12:10;;;;;;;6.70;4.60;;;10.40;99.90;;;;;;4994662;28;20089;-81
2021/09/01 01:14:44;;;;;;;6.28;4.88;;;10.40;99.90;;;;;;4973639;28;20088;-81
2021/09/01 01:17:12;;;;;;;7.15;4.88;;;10.40;99.90;;;;;;4995529;28;20091;-81
2021/09/01 01:19:42;;;;;;;5.82;4.50;;;10.40;99.90;;;;;;5002661;28;20061;-80
2021/09/01 01:22:10;;;;;;;5.90;4.53;;;10.30;99.90;;;;;;4995338;28;20049;-81
2021/09/01 01:24:56;;;;;;;6.10;4.10;;;10.30;99.90;;;;;;5001183;28;20042;-81
2021/09/01 01:27:38;;;;;;;6.10;4.50;;;10.20;99.90;;;;;;4981664;28;20034;-81
2021/09/01 01:30:17;;;;;;;5.25;4.00;;;10.20;99.90;;;;;;4990348;28;20040;-81
2021/09/01 01:32:47;;;;;;;11.65;4.82;;;10.10;99.90;;;;;;4993140;28;20041;-81
2021/09/01 01:35:27;;;;;;;6.60;4.75;;;10.10;99.90;;;;;;4986281;28;20503;-81
2021/09/01 01:37:54;;;;;;;6.93;4.75;;;10.10;99.90;;;;;;4984997;28;20042;-81
2021/09/01 01:40:21;;;;;;;6.85;4.35;;;10.00;99.90;;;;;;4993758;28;20623;-81
2021/09/01 01:42:47;;;;;;;6.05;4.80;;;10.00;99.90;;;;;;4989571;28;20412;-81
2021/09/01 01:45:13;;;;;;;6.50;4.53;;;10.00;99.90;;;;;;4996673;28;20034;-81
2021/09/01 01:47:39;;;;;;;8.15;4.80;;;9.90;99.90;;;;;;5008724;28;20085;-81
2021/09/01 01:50:06;;;;;;;7.30;4.85;;;9.90;99.90;;;;;;5000303;28;20048;-81
2021/09/01 01:52:32;;;;;;;5.82;4.85;;;9.90;99.90;;;;;;4999437;28;20476;-81
2021/09/01 01:54:58;;;;;;;6.93;5.45;;;9.90;99.90;;;;;;5003984;28;20033;-81
2021/09/01 01:57:24;;;;;;;7.30;5.55;;;9.90;99.90;;;;;;4973046;28;20404;-81
2021/09/01 01:59:49;;;;;;;8.68;5.45;;;9.80;99.90;;;;;;5002656;28;20121;-80
2021/09/01 02:02:15;;;;;;;7.18;5.82;;;9.90;99.90;;;;;;4986789;28;20053;-81
2021/09/01 02:04:40;;;;;;;6.65;5.03;;;9.90;99.90;;;;;;4981939;28;20043;-81
2021/09/01 02:07:06;;;;;;;9.60;5.35;;;9.90;99.90;;;;;;5001884;28;20101;-81
2021/09/01 02:09:32;;;;;;;7.03;4.75;;;9.90;99.90;;;;;;4985636;28;20038;-80
2021/09/01 02:11:57;;;;;;;6.55;4.93;;;9.90;99.90;;;;;;4986968;28;20088;-80
2021/09/01 02:14:23;;;;;;;4.13;3.60;;;9.90;99.90;;;;;;4982679;28;20037;-81
2021/09/01 02:16:49;;;;;;;7.75;4.30;;;9.90;99.90;;;;;;4987992;28;20049;-81
2021/09/01 02:19:14;;;;;;;5.30;4.40;;;10.00;99.90;;;;;;5004183;28;20593;-80
2021/09/01 02:21:40;;;;;;;5.85;4.35;;;10.00;99.90;;;;;;4983539;28;20607;-81
2021/09/01 02:24:07;;;;;;;5.45;4.30;;;10.00;99.90;;;;;;5002742;28;20093;-81
2021/09/01 02:26:32;;;;;;;7.10;4.28;;;10.10;99.90;;;;;;5000605;28;20038;-80
2021/09/01 02:28:59;;;;;;;4.28;3.88;;;10.00;99.90;;;;;;5003281;28;20019;-81
2021/09/01 02:31:25;;;;;;;5.43;4.55;;;10.00;99.90;;;;;;4999446;28;20164;-81
2021/09/01 02:33:51;;;;;;;4.90;4.05;;;10.00;99.90;;;;;;4982947;28;20142;-81
2021/09/01 02:36:17;;;;;;;9.13;4.30;;;9.90;99.90;;;;;;4998273;28;20031;-81
2021/09/01 02:38:44;;;;;;;4.13;3.72;;;9.90;99.90;;;;;;5005180;28;20029;-81
2021/09/01 02:41:11;;;;;;;4.50;4.10;;;9.90;99.90;;;;;;4999062;28;20039;-81
2021/09/01 02:43:37;;;;;;;3.60;3.30;;;9.80;99.90;;;;;;5004391;28;20026;-81
2021/09/01 02:46:03;;;;;;;5.15;3.80;;;9.80;99.90;;;;;;5002818;28;20092;-81
2021/09/01 02:48:30;;;;;;;4.72;3.67;;;9.80;99.90;;;;;;4983532;28;20030;-80
2021/09/01 02:50:56;;;;;;;6.82;4.00;;;9.80;99.90;;;;;;4994950;28;20070;-81
2021/09/01 02:53:22;;;;;;;7.32;4.03;;;9.80;99.90;;;;;;4990671;28;20058;-81
2021/09/01 02:55:48;;;;;;;4.63;4.13;;;9.80;99.90;;;;;;4981202;28;20057;-81
2021/09/01 02:58:14;;;;;;;4.28;3.70;;;9.80;99.90;;;;;;4984021;28;20113;-80
2021/09/01 03:00:40;;;;;;;4.70;4.10;;;9.70;99.90;;;;;;4980968;28;20516;-81
2021/09/01 03:03:05;;;;;;;4.43;4.03;;;9.80;99.90;;;;;;5004445;28;20030;-81
2021/09/01 03:05:31;;;;;;;4.50;3.90;;;9.70;99.90;;;;;;4980009;28;20562;-81
2021/09/01 03:07:57;;;;;;;6.20;4.22;;;9.70;99.90;;;;;;5004803;28;20491;-80
2021/09/01 03:10:22;;;;;;;4.88;3.75;;;9.80;99.90;;;;;;4985890;28;20057;-81
2021/09/01 03:12:48;;;;;;;4.95;3.80;;;9.80;99.90;;;;;;4975525;28;20033;-80
2021/09/01 03:15:14;;;;;;;4.60;3.88;;;9.80;99.90;;;;;;4969174;28;20026;-80
2021/09/01 03:17:40;;;;;;;6.28;4.40;;;9.80;99.90;;;;;;5002851;28;20029;-80
2021/09/01 03:20:06;;;;;;;4.70;3.83;;;9.80;99.90;;;;;;4977043;28;20041;-81
2021/09/01 03:22:32;;;;;;;5.38;4.18;;;9.70;99.90;;;;;;4999029;28;20034;-80
2021/09/01 03:24:58;;;;;;;4.60;4.00;;;9.70;99.90;;;;;;4994977;28;20122;-81
2021/09/01 03:27:24;;;;;;;4.20;3.80;;;9.70;99.90;;;;;;4986499;28;20026;-81
2021/09/01 03:29:49;;;;;;;4.97;4.28;;;9.70;99.90;;;;;;4994276;28;20038;-81
2021/09/01 03:32:15;;;;;;;4.63;4.00;;;9.60;99.90;;;;;;4978518;28;20042;-81
2021/09/01 03:34:41;;;;;;;4.40;4.00;;;9.60;99.90;;;;;;4994212;28;20034;-81
2021/09/01 03:37:06;;;;;;;3.97;3.58;;;9.50;99.90;;;;;;4985405;28;20042;-81
2021/09/01 03:39:32;;;;;;;3.30;2.95;;;9.50;99.90;;;;;;4987319;28;20041;-81
2021/09/01 03:41:58;;;;;;;3.92;3.50;;;9.40;99.90;;;;;;4965477;28;20454;-81
2021/09/01 03:44:24;;;;;;;4.15;3.45;;;9.40;99.90;;;;;;5004863;28;20037;-81
2021/09/01 03:46:49;;;;;;;4.22;3.70;;;9.40;99.90;;;;;;4987866;28;20034;-81
2021/09/01 03:49:18;;;;;;;4.22;3.50;;;9.30;99.90;;;;;;4981197;28;20397;-81
2021/09/01 03:51:44;;;;;;;4.35;3.55;;;9.30;99.90;;;;;;4994168;28;20037;-81
2021/09/01 03:54:10;;;;;;;4.57;3.40;;;9.20;99.90;;;;;;4995758;28;20173;-81
2021/09/01 03:56:37;;;;;;;4.97;4.10;;;9.20;99.90;;;;;;4997886;28;20097;-80
2021/09/01 03:59:04;;;;;;;3.38;3.05;;;9.10;99.90;;;;;;4979472;28;20086;-80
2021/09/01 04:01:32;;;;;;;4.85;3.50;;;9.10;99.90;;;;;;4972883;28;20397;-80
2021/09/01 04:03:57;;;;;;;4.05;3.65;;;9.10;99.90;;;;;;5001750;28;20034;-80
2021/09/01 04:06:24;;;;;;;4.07;3.22;;;9.00;99.90;;;;;;4990335;28;20076;-80
2021/09/01 04:08:49;;;;;;;3.72;3.38;;;9.00;99.90;;;;;;4984969;28;20038;-81
2021/09/01 04:11:15;;;;;;;4.50;3.33;;;9.00;99.90;;;;;;4981165;28;20050;-81
2021/09/01 04:13:40;;;;;;;4.50;3.85;;;9.00;99.90;;;;;;4960898;28;20040;-80
2021/09/01 04:16:06;;;;;;;4.32;3.80;;;9.00;99.90;;;;;;4983417;28;20066;-81
2021/09/01 04:18:32;;;;;;;3.47;3.17;;;9.00;99.90;;;;;;4985992;28;20404;-80
2021/09/01 04:20:57;;;;;;;6.28;3.88;;;9.00;99.90;;;;;;4996195;28;20101;-80
2021/09/01 04:23:23;;;;;;;3.65;3.35;;;9.00;99.90;;;;;;5001565;28;20419;-81
2021/09/01 04:25:49;;;;;;;4.07;3.42;;;9.00;99.90;;;;;;4982247;28;20031;-81
2021/09/01 04:28:14;;;;;;;3.70;3.30;;;9.00;99.90;;;;;;4947169;28;20061;-81
2021/09/01 04:30:40;;;;;;;3.38;3.08;;;9.10;99.90;;;;;;4961216;28;20033;-81
2021/09/01 04:33:06;;;;;;;3.28;2.97;;;9.10;99.90;;;;;;4985794;28;20435;-80
2021/09/01 04:35:32;;;;;;;3.97;2.40;;;9.10;99.90;;;;;;4993682;28;20034;-80
2021/09/01 04:37:57;;;;;;;2.97;2.67;;;9.10;99.90;;;;;;4983897;28;20053;-80
2021/09/01 04:40:23;;;;;;;5.13;3.47;;;9.10;99.90;;;;;;4981922;28;20038;-80
2021/09/01 04:42:48;;;;;;;4.65;3.88;;;9.10;99.90;;;;;;4940969;28;20034;-80
2021/09/01 04:45:14;;;;;;;3.95;3.63;;;9.10;99.90;;;;;;4984112;28;20057;-80
2021/09/01 04:47:40;;;;;;;4.22;3.17;;;9.10;99.90;;;;;;4997881;28;20034;-80
2021/09/01 04:50:06;;;;;;;3.40;3.10;;;9.10;99.90;;;;;;4991414;28;20033;-80
2021/09/01 04:52:31;;;;;;;3.35;2.90;;;9.20;99.90;;;;;;4985171;28;20041;-80
2021/09/01 04:54:58;;;;;;;3.47;2.92;;;9.20;99.90;;;;;;4994123;28;20033;-80
2021/09/01 04:57:23;;;;;;;4.30;3.10;;;9.20;99.90;;;;;;4984137;28;20717;-80
2021/09/01 04:59:49;;;;;;;4.68;3.85;;;9.20;99.90;;;;;;5000514;28;20065;-80
2021/09/01 05:02:15;;;;;;;3.50;3.17;;;9.30;99.90;;;;;;4965446;28;20035;-80
2021/09/01 05:04:40;;;;;;;4.50;3.75;;;9.30;99.90;;;;;;4984093;28;20503;-80
2021/09/01 05:07:06;;;;;;;3.42;3.13;;;9.30;99.90;;;;;;4968625;28;20038;-80
2021/09/01 05:09:32;;;;;;;3.40;3.10;;;9.30;99.90;;;;;;4991651;28;20038;-80
2021/09/01 05:11:58;;;;;;;5.88;3.33;;;9.30;99.90;;;;;;4996425;28;20030;-80
2021/09/01 05:14:23;;;;;;;6.70;3.58;;;9.40;99.90;;;;;;4984669;28;20029;-81
2021/09/01 05:16:49;;;;;;;6.22;3.50;;;9.40;99.90;;;;;;4978052;28;20081;-80
2021/09/01 05:19:15;;;;;;;3.95;3.55;;;9.50;99.90;;;;;;4989650;28;20034;-80
2021/09/01 05:21:45;;;;;;;4.70;3.78;;;9.50;99.90;;;;;;5002464;28;20518;-80
2021/09/01 05:24:20;;;;;;;3.60;3.30;;;9.50;99.90;;;;;;4986705;28;20038;-81
2021/09/01 05:26:46;;;;;;;5.38;3.67;;;9.50;99.90;;;;;;5008163;28;20558;-80
2021/09/01 05:29:13;;;;;;;3.38;3.00;;;9.50;99.90;;;;;;4997171;28;20034;-80
2021/09/01 05:31:39;;;;;;;4.35;3.80;;;9.60;99.90;;;;;;4982906;28;20388;-80
2021/09/01 05:34:05;;;;;;;3.85;3.45;;;9.60;99.90;;;;;;4980991;28;20045;-80
2021/09/01 05:36:32;;;;;;;3.63;3.22;;;9.70;99.90;;;;;;5005270;28;20042;-80
2021/09/01 05:38:59;;;;;;;4.88;3.75;;;9.70;99.90;;;;;;5005199;28;20053;-80
2021/09/01 05:41:29;;;;;;;3.72;3.30;;;9.80;99.90;;;;;;4999832;28;20042;-80
2021/09/01 05:43:55;;;;;;;3.47;2.80;;;10.00;99.90;;;;;;5004870;28;20042;-80
2021/09/01 05:46:22;;;;;;;5.15;3.83;;;10.10;99.90;;;;;;5001149;28;20042;-80
2021/09/01 05:48:49;;;;;;;3.10;2.80;;;10.10;99.90;;;;;;5004318;28;20038;-80
2021/09/01 05:51:15;;;;;;;3.50;3.05;;;10.20;99.90;;;;;;4984224;28;20037;-80
2021/09/01 05:53:40;;;;;;;3.50;3.20;;;10.20;99.90;;;;;;4964298;28;20481;-80
2021/09/01 05:56:09;;;;;;;5.50;3.25;;;10.30;99.90;;;;;;5001081;28;20102;-81
2021/09/01 05:58:38;;;;;;;3.28;2.97;;;10.30;99.90;;;;;;5004968;28;20034;-80
2021/09/01 06:01:06;;;;;;;5.22;3.22;;;10.40;99.90;;;;;;4999731;28;20036;-80
2021/09/01 06:03:34;;;;;;;3.42;3.00;;;10.50;99.90;;;;;;4991026;28;20038;-80
2021/09/01 06:06:02;;;;;;;4.00;3.08;;;10.50;99.90;;;;;;4979505;28;20038;-81
2021/09/01 06:08:33;;;;;;;3.00;2.60;;;10.60;99.90;;;;;;5000774;28;20049;-81
2021/09/01 06:11:02;;;;;;;2.88;2.60;;;10.60;99.90;;;;;;4984634;28;20073;-81
2021/09/01 06:13:28;;;;;;;2.83;2.50;;;10.60;99.90;;;;;;4979218;28;20492;-80
2021/09/01 06:15:56;;;;;;;2.88;2.67;;;10.70;99.90;;;;;;5000139;28;20508;-80
2021/09/01 06:18:22;;;;;;;3.67;2.90;;;10.70;99.90;;;;;;4993912;28;20487;-80
2021/09/01 06:20:48;;;;;;;3.08;2.75;;;10.70;99.90;;;;;;4992519;28;20042;-80
2021/09/01 06:23:14;;;;;;;3.30;2.95;;;10.80;99.90;;;;;;4992316;28;20405;-80
2021/09/01 06:25:39;;;;;;;3.40;3.10;;;10.80;99.90;;;;;;4999806;28;20034;-80
2021/09/01 06:28:06;;;;;;;4.20;3.47;;;11.00;99.90;;;;;;5000648;28;20049;-80
2021/09/01 06:30:33;;;;;;;3.78;3.03;;;11.20;99.90;;;;;;4983824;28;20436;-80
2021/09/01 06:32:58;;;;;;;4.00;3.33;;;11.40;99.90;;;;;;4993484;28;20504;-81
2021/09/01 06:35:24;;;;;;;3.70;3.28;;;11.50;99.90;;;;;;4985563;28;20041;-80
2021/09/01 06:37:50;;;;;;;5.20;2.88;;;11.70;99.90;;;;;;4984323;28;20038;-81
2021/09/01 06:40:18;;;;;;;4.68;2.53;;;11.90;99.90;;;;;;5004765;28;20026;-81
2021/09/01 06:42:44;;;;;;;2.45;2.25;;;12.10;99.90;;;;;;4984091;28;20441;-81
2021/09/01 06:45:10;;;;;;;2.70;2.42;;;12.20;99.90;;;;;;4979136;28;20069;-80
2021/09/01 06:47:43;;;;;;;3.35;2.80;;;12.40;99.90;;;;;;4987373;28;20044;-81
2021/09/01 06:50:10;;;;;;;3.53;2.90;;;12.50;99.90;;;;;;5006693;28;20026;-80
2021/09/01 06:52:36;;;;;;;2.60;2.40;;;12.70;99.90;;;;;;4993243;28;20030;-80
2021/09/01 06:55:03;;;;;;;2.70;2.38;;;13.00;99.90;;;;;;4981856;28;20130;-80
2021/09/01 06:57:28;;;;;;;2.83;2.35;;;13.40;99.90;;;;;;5003390;28;20551;-80
2021/09/01 06:59:54;;;;;;;1.90;1.77;;;13.90;99.90;;;;;;5002629;28;20042;-80
2021/09/01 07:02:19;;;;;;;2.10;1.90;;;14.30;99.90;;;;;;4984748;28;20065;-81
2021/09/01 07:04:45;;;;;;;1.88;1.77;;;14.60;99.90;;;;;;5003456;28;20038;-81
2021/09/01 07:07:11;;;;;;;2.00;1.42;;;15.00;99.90;;;;;;5001852;28;20033;-80
2021/09/01 07:09:36;;;;;;;2.20;2.00;;;15.40;99.90;;;;;;4996929;28;20431;-80
2021/09/01 07:12:02;;;;;;;4.13;1.85;;;15.70;99.90;;;;;;4991430;28;20057;-80
2021/09/01 07:14:28;;;;;;;2.05;1.85;;;16.10;99.90;;;;;;4997103;28;20025;-80
2021/09/01 07:16:53;;;;;;;1.90;1.80;;;16.30;99.90;;;;;;4970806;28;20056;-80
2021/09/01 07:19:19;;;;;;;2.20;2.00;;;16.50;99.90;;;;;;5002990;28;20113;-80
2021/09/01 07:21:45;;;;;;;1.80;1.70;;;16.80;99.90;;;;;;4998961;28;20129;-80
2021/09/01 07:24:10;;;;;;;2.28;2.08;;;17.20;99.90;;;;;;4981991;28;20060;-81
2021/09/01 07:26:36;;;;;;;1.80;1.70;;;17.50;99.90;;;;;;4982471;28;20026;-80
2021/09/01 07:29:02;;;;;;;2.28;2.05;;;17.80;99.90;;;;;;5001727;28;20870;-80
2021/09/01 07:31:31;;;;;;;2.35;2.15;;;18.10;99.90;;;;;;4998340;28;20662;-80
2021/09/01 07:33:59;;;;;;;2.38;2.05;;;18.40;99.90;;;;;;4977826;28;20022;-81
2021/09/01 07:36:25;;;;;;;3.05;2.40;;;18.40;99.90;;;;;;4985121;28;20037;-80
2021/09/01 07:38:51;;;;;;;2.63;2.42;;;18.70;99.90;;;;;;5003944;28;20036;-80
2021/09/01 07:41:17;;;;;;;2.38;2.03;;;18.70;99.90;;;;;;4997305;28;20081;-80
2021/09/01 07:43:42;;;;;;;2.40;2.17;;;18.60;99.90;;;;;;5003983;28;20117;-80
2021/09/01 07:46:08;;;;;;;2.15;1.90;;;18.50;99.90;;;;;;4991509;28;20089;-80
2021/09/01 07:48:35;;;;;;;2.08;1.92;;;18.40;99.90;;;;;;4995597;28;20054;-80
2021/09/01 07:51:01;;;;;;;2.60;2.40;;;18.30;99.90;;;;;;4985334;28;20056;-79
2021/09/01 07:53:27;;;;;;;2.88;2.50;;;18.00;99.90;;;;;;4993250;28;20030;-80
2021/09/01 07:55:53;;;;;;;2.33;2.03;;;17.60;99.90;;;;;;4981025;28;20026;-80
2021/09/01 07:58:19;;;;;;;3.00;2.58;;;17.60;99.90;;;;;;5000985;28;20030;-80
2021/09/01 08:00:45;;;;;;;2.47;2.28;;;17.50;99.90;;;;;;4996007;28;20694;-80
2021/09/01 08:03:10;;;;;;;3.83;3.42;;;17.50;99.90;;;;;;5004631;28;20407;-80
2021/09/01 08:05:36;;;;;;;4.40;3.67;;;17.40;99.90;;;;;;5003280;28;20109;-80
2021/09/01 08:08:03;;;;;;;4.95;4.28;;;17.20;99.90;;;;;;4985988;28;20412;-80
2021/09/01 08:10:29;;;;;;;5.93;4.22;;;17.10;99.90;;;;;;4983555;28;20031;-80
2021/09/01 08:12:54;;;;;;;4.00;3.50;;;17.00;99.90;;;;;;4990827;28;20042;-80
2021/09/01 08:15:20;;;;;;;3.60;3.30;;;16.80;99.90;;;;;;4983887;28;20169;-80
2021/09/01 08:17:46;;;;;;;3.80;2.70;;;16.80;99.90;;;;;;5000002;28;20038;-80
2021/09/01 08:20:12;;;;;;;10.98;3.92;;;16.70;99.90;;;;;;4994807;28;20038;-80
2021/09/01 08:22:38;;;;;;;7.68;3.63;;;16.70;99.90;;;;;;4986097;28;20029;-79
2021/09/01 08:25:05;;;;;;;4.53;3.80;;;16.70;99.90;;;;;;4995322;28;20042;-79
2021/09/01 08:27:30;;;;;;;4.10;3.50;;;16.70;99.90;;;;;;5002073;28;20112;-80
2021/09/01 08:29:56;;;;;;;4.38;3.60;;;16.70;99.90;;;;;;4998521;28;20082;-80
2021/09/01 08:32:22;;;;;;;5.30;4.22;;;16.80;99.90;;;;;;4982893;28;20033;-80
2021/09/01 08:34:48;;;;;;;6.40;4.25;;;16.70;99.90;;;;;;4998843;28;20033;-80
2021/09/01 08:37:13;;;;;;;5.40;3.92;;;16.70;99.90;;;;;;4999694;28;20044;-79
2021/09/01 08:39:39;;;;;;;7.05;4.43;;;16.70;99.90;;;;;;5004545;28;20073;-79
2021/09/01 08:42:05;;;;;;;5.78;3.78;;;16.80;99.90;;;;;;4963033;28;20041;-79
2021/09/01 08:44:31;;;;;;;4.93;3.72;;;16.80;99.90;;;;;;4997710;28;20073;-79
2021/09/01 08:46:59;;;;;;;5.45;3.83;;;16.80;99.90;;;;;;4998349;28;20035;-79
2021/09/01 08:49:28;;;;;;;4.43;3.60;;;16.90;99.90;;;;;;4983646;28;20451;-79
2021/09/01 08:51:55;;;;;;;5.03;3.42;;;16.80;99.90;;;;;;4990547;28;20030;-79
2021/09/01 08:54:21;;;;;;;4.43;3.42;;;16.80;99.90;;;;;;4995884;28;20032;-80
2021/09/01 08:56:47;;;;;;;5.53;3.80;;;16.70;99.90;;;;;;5001078;28;20044;-79
2021/09/01 08:59:13;;;;;;;4.95;3.70;;;16.70;99.90;;;;;;4999432;28;20034;-79
2021/09/01 09:01:47;;;;;;;7.97;4.30;;;16.60;99.90;;;;;;4993417;28;20037;-79
2021/09/01 09:04:21;;;;;;;6.00;4.38;;;16.60;99.90;;;;;;4988280;28;20030;-79
2021/09/01 09:06:48;;;;;;;6.50;4.20;;;16.60;99.90;;;;;;5001476;28;20034;-79
2021/09/01 09:09:15;;;;;;;6.47;4.20;;;16.60;99.90;;;;;;4993365;28;20074;-80
2021/09/01 09:11:41;;;;;;;5.45;3.95;;;16.60;99.90;;;;;;4979279;28;20031;-80
2021/09/01 09:14:18;;;;;;;5.40;4.18;;;16.50;99.90;;;;;;4978363;28;20475;-79
2021/09/01 09:16:44;;;;;;;5.88;4.38;;;16.50;99.90;;;;;;5002657;28;20036;-80
2021/09/01 09:19:11;;;;;;;6.05;3.95;;;16.60;99.90;;;;;;5006512;28;20038;-80
2021/09/01 09:21:37;;;;;;;6.63;4.15;;;16.60;99.90;;;;;;4985014;28;20047;-80
2021/09/01 09:24:21;;;;;;;5.05;3.88;;;16.60;99.90;;;;;;4998492;28;20029;-79
2021/09/01 09:26:47;;;;;;;5.53;3.90;;;16.60;99.90;;;;;;4994194;28;20034;-80
2021/09/01 09:29:17;;;;;;;4.80;3.60;;;16.70;99.90;;;;;;4996537;28;20513;-80
2021/09/01 09:32:02;;;;;;;5.72;4.32;;;16.70;99.90;;;;;;4987667;28;20027;-79
2021/09/01 09:34:42;;;;;;;8.30;4.25;;;16.80;99.90;;;;;;4992024;28;20046;-80
2021/09/01 09:37:13;;;;;;;5.40;4.18;;;16.90;99.90;;;;;;4996728;28;20037;-81
2021/09/01 09:39:52;;;;;;;9.40;3.97;;;17.00;99.90;;;;;;4992809;28;20440;-80
2021/09/01 09:42:40;;;;;;;5.15;3.78;;;17.00;99.90;;;;;;4994168;28;20045;-80
2021/09/01 09:45:23;;;;;;;5.45;3.30;;;17.00;99.90;;;;;;4998609;28;20611;-80
2021/09/01 09:47:52;;;;;;;6.32;4.32;;;17.00;99.90;;;;;;4997817;28;20034;-80
2021/09/01 09:50:18;;;;;;;6.40;4.10;;;17.10;99.90;;;;;;4991793;28;20085;-80
2021/09/01 09:52:44;;;;;;;6.55;4.32;;;17.10;99.90;;;;;;5007925;28;20037;-80
2021/09/01 09:55:11;;;;;;;4.63;3.55;;;17.10;99.90;;;;;;4998668;28;20034;-80
2021/09/01 09:57:49;;;;;;;3.80;2.92;;;17.10;99.90;;;;;;5005307;28;20484;-80
2021/09/01 10:00:16;;;;;;;5.18;3.50;;;17.20;99.90;;;;;;4993252;28;20042;-79
2021/09/01 10:02:43;;;;;;;4.80;3.50;;;17.30;99.90;;;;;;4992978;28;20121;-80
2021/09/01 10:05:13;;;;;;;4.97;3.58;;;17.40;99.90;;;;;;5002651;28;20524;-80
2021/09/01 10:07:40;;;;;;;6.63;3.50;;;17.40;99.90;;;;;;5004735;28;20080;-80
2021/09/01 10:10:07;;;;;;;4.53;3.63;;;17.40;99.90;;;;;;4994381;28;20056;-80
2021/09/01 10:12:40;;;;;;;8.00;4.38;;;17.50;99.90;;;;;;4990814;28;20062;-80
2021/09/01 10:15:09;;;;;;;5.00;3.45;;;17.50;99.90;;;;;;5000228;28;20029;-81
2021/09/01 10:17:43;;;;;;;4.55;3.55;;;17.50;99.90;;;;;;4984472;28;20126;-80
2021/09/01 10:20:15;;;;;;;5.35;3.38;;;17.50;99.90;;;;;;4991734;28;20088;-81
2021/09/01 10:22:41;;;;;;;5.63;3.67;;;17.40;99.90;;;;;;4984491;28;20046;-80
2021/09/01 10:25:07;;;;;;;5.25;4.13;;;17.40;99.90;;;;;;5001878;28;20037;-80
2021/09/01 10:27:33;;;;;;;4.68;3.63;;;17.50;99.90;;;;;;4988195;28;20041;-80
2021/09/01 10:30:09;;;;;;;5.57;3.70;;;17.50;99.90;;;;;;5000645;28;20025;-80
2021/09/01 10:32:41;;;;;;;;;;;17.40;99.90;;;;;;4986438;28;20034;-80
2021/09/01 10:35:16;;;;;;;4.35;3.60;;;17.40;99.90;;;;;;4999681;28;19916;-80
2021/09/01 10:37:43;;;;;;;6.57;4.07;;;17.50;99.90;;;;;;5003211;28;20038;-80
2021/09/01 10:40:23;;;;;;;4.20;3.15;;;17.50;99.90;;;;;;5006138;28;20074;-80
2021/09/01 10:42:53;;;;;;;4.82;3.42;;;17.60;99.90;;;;;;5007779;28;20040;-80
2021/09/01 10:45:23;;;;;;;4.57;3.60;;;17.60;99.90;;;;;;4997544;28;20034;-80
2021/09/01 10:47:51;;;;;;;3.85;3.30;;;17.70;99.90;;;;;;4987924;28;20124;-81
2021/09/01 10:50:23;;;;;;;3.85;3.05;;;17.80;99.90;;;;;;4986705;28;20496;-80
2021/09/01 10:52:56;;;;;;;5.72;3.03;;;17.80;99.90;;;;;;4992839;28;20118;-80
2021/09/01 10:55:21;;;;;;;5.00;3.40;;;17.80;99.90;;;;;;5001968;28;20049;-80
2021/09/01 10:58:17;;;;;;;5.13;3.20;;;17.80;99.90;;;;;;4986397;28;20038;-80
2021/09/01 11:00:43;;;;;;;7.95;3.70;;;17.80;99.90;;;;;;4979773;28;20127;-80
2021/09/01 11:03:09;;;;;;;4.47;3.03;;;17.90;99.90;;;;;;5008862;28;20030;-80
2021/09/01 11:05:35;;;;;;;4.72;3.28;;;17.90;99.90;;;;;;4996396;28;20038;-82
2021/09/01 11:08:00;;;;;;;4.80;3.15;;;18.00;99.90;;;;;;4997252;28;20038;-80
2021/09/01 11:10:27;;;;;;;5.93;3.55;;;18.10;99.90;;;;;;4999750;28;20053;-80
2021/09/01 11:12:58;;;;;;;4.07;3.08;;;18.20;99.90;;;;;;4980789;28;20034;-81
2021/09/01 11:15:25;;;;;;;4.13;3.08;;;18.30;99.90;;;;;;5003382;28;20033;-81
2021/09/01 11:17:51;;;;;;;4.97;3.55;;;18.40;99.90;;;;;;4983488;28;20121;-80
2021/09/01 11:20:16;;;;;;;3.88;3.30;;;18.40;99.90;;;;;;5002278;28;20126;-80
2021/09/01 11:22:42;;;;;;;4.22;2.85;;;18.50;99.90;;;;;;5004435;28;20037;-80
2021/09/01 11:25:14;;;;;;;5.32;3.28;;;18.70;99.90;;;;;;4968241;28;20471;-80
2021/09/01 11:27:48;;;;;;;4.50;3.10;;;19.10;99.90;;;;;;5025549;23;20045;-83
2021/09/01 11:30:15;;;;;;;4.35;3.20;;;19.30;99.90;;;;;;4988097;28;20448;-84
2021/09/01 11:32:42;;;;;;;2.90;2.60;;;19.50;99.90;;;;;;4996169;28;20030;-83
2021/09/01 11:35:22;;;;;;;4.13;3.28;;;19.50;99.90;;;;;;5012371;28;20025;-82
2021/09/01 11:37:58;;;;;;;8.30;3.53;;;19.50;99.90;;;;;;4987341;28;20034;-82
2021/09/01 11:40:36;;;;;;;4.15;3.33;;;19.40;99.90;;;;;;4978339;28;20050;-83
2021/09/01 11:43:20;;;;;;;4.88;3.15;;;19.20;99.90;;;;;;4984153;28;20087;-82
2021/09/01 11:45:51;;;;;;;4.03;2.88;;;19.10;99.90;;;;;;4994574;28;20061;-83
2021/09/01 11:48:17;;;;;;;4.47;3.42;;;19.00;99.90;;;;;;4990615;28;20044;-83
2021/09/01 11:50:47;;;;;;;3.97;3.30;;;19.10;99.90;;;;;;4974427;28;20504;-82
2021/09/01 11:53:14;;;;;;;6.00;3.17;;;19.10;99.90;;;;;;4996815;28;20041;-84
2021/09/01 11:55:41;;;;;;;3.38;3.03;;;19.20;99.90;;;;;;4966418;28;20073;-83
2021/09/01 11:58:18;;;;;;;4.88;3.38;;;19.40;99.90;;;;;;4983399;28;20039;-81
2021/09/01 12:00:45;;;;;;;3.97;3.40;;;19.50;99.90;;;;;;4974952;28;20057;-81
2021/09/01 12:03:11;;;;;;;4.47;3.30;;;19.50;99.90;;;;;;4969213;28;20038;-82
2021/09/01 12:05:40;;;;;;;6.38;3.30;;;19.70;99.90;;;;;;4993831;28;20073;-84
2021/09/01 12:08:18;;;;;;;8.18;3.50;;;19.90;99.90;;;;;;4980756;28;20038;-82
2021/09/01 12:10:45;;;;;;;7.30;3.80;;;20.10;99.90;;;;;;4986849;28;20057;-82
2021/09/01 12:13:11;;;;;;;4.75;3.35;;;20.40;99.90;;;;;;4985688;28;20080;-83
2021/09/01 12:15:37;;;;;;;3.65;2.92;;;20.70;99.90;;;;;;4967967;28;20038;-81
2021/09/01 12:18:06;;;;;;;4.60;3.30;;;20.90;99.90;;;;;;4964455;28;20080;-82
2021/09/01 12:20:34;;;;;;;6.28;3.47;;;21.10;99.90;;;;;;4989310;28;20516;-82
2021/09/01 12:23:11;;;;;;;3.60;3.30;;;21.30;99.90;;;;;;4987056;28;20443;-83
2021/09/01 12:25:37;;;;;;;4.95;3.67;;;21.50;99.90;;;;;;5009659;28;20042;-82
2021/09/01 12:28:07;;;;;;;7.10;3.30;;;21.70;99.90;;;;;;4979846;28;20037;-83
2021/09/01 12:30:35;;;;;;;3.60;3.08;;;21.70;99.90;;;;;;4966635;28;20129;-84
2021/09/01 12:33:10;;;;;;;4.00;3.13;;;21.70;99.90;;;;;;4971842;28;20081;-84
2021/09/01 12:35:36;;;;;;;4.13;3.10;;;21.70;99.90;;;;;;4992276;28;20031;-84
2021/09/01 12:38:05;;;;;;;4.68;3.10;;;21.50;99.90;;;;;;4964203;28;20519;-82
2021/09/01 12:40:35;;;;;;;4.28;3.10;;;21.40;99.90;;;;;;4990022;28;20041;-83
2021/09/01 12:43:07;;;;;;;3.95;3.13;;;21.20;99.90;;;;;;4989786;28;20042;-83
2021/09/01 12:45:34;;;;;;;4.53;3.15;;;21.00;99.90;;;;;;4996286;28;20031;-83
2021/09/01 12:48:09;;;;;;;4.65;3.28;;;20.80;99.90;;;;;;4998014;28;20038;-83
2021/09/01 12:50:41;;;;;;;5.28;3.65;;;20.60;99.90;;;;;;4994992;28;20034;-83
2021/09/01 12:53:10;;;;;;;4.32;3.17;;;20.40;99.90;;;;;;4990010;28;20058;-83